Laurel, MD (20707)

7:15 AM EDT on September 19, 2014 (GMT -0400)
McKnew | Change Station
CLOSE
Current Station
Personal Weather Station
Location: Burtonsville, MD
Elevation: 417 ft
Nearby Weather Stations

Elev 417 ft 39.10 °N, 76.92 °W | Updated 7 minutes ago

Partly Cloudy
Partly Cloudy
54.0 °F
Feels Like 54.0 °F
N
1.7
Wind Variable Wind from East

Today
High -- | Low -- °F
--% Chance of Precip.
Yesterday
High -- | Low -- °F
Precip. -- in
6:52 AM 7:09 PM
Waning Crescent, 20% visible
Pressure 30.23 in
Visibility 10.0 miles
Clouds Scattered Clouds 9500 ft
Dew Point 53 °F
Humidity 98%
Rainfall 0.00 in
Snow Depth Not available.
UV 0 out of 12
Pollen 4.00 out of 12
Air Quality Not available.
Flu Activity Not available.
METAR KFME 191039Z AUTO 03003KT 10SM SCT095 12/10 A3023 RMK AO1

More Conditions Fewer Conditions

Pressure 30.23 in
Visibility 10.0 miles
Clouds Scattered Clouds 9500 ft
Dew Point 53 °F
Humidity 98%
Rainfall 0.00 in
Snow Depth Not available.
UV 0 out of 12
Pollen 4.00 out of 12
Air Quality Not available.
Flu Activity Not available.
METAR KFME 191039Z AUTO 03003KT 10SM SCT095 12/10 A3023 RMK AO1

More Conditions Fewer Conditions

10-Day Weather Forecast

Almanac

Astronomy

Sep. 19, 2014 Rise Set
Actual Time 6:52 AM EDT 7:09 PM EDT
Civil Twilight 6:25 AM EDT 7:36 PM EDT
Nautical Twilight 5:54 AM EDT 8:07 PM EDT
Astronomical Twilight 5:22 AM EDT 8:39 PM EDT
Moon 2:37 AM EDT 4:35 PM EDT
Length of Visible Light 13h 10m
Length of Day
12h 17m
Tomorrow will be 2m 32s shorter.
Waning Crescent, 20% of the Moon is Illuminated
Today
Waning Crescent
Sep 24
New
Oct 1
First Quarter
Oct 8
Full
Oct 15
Last Quarter

Today's Extremes

State Highs State Lows

Community

WunderPhotos

Upload Photos

1,754,592 photos uploaded!

WunderBlogs® & News

Nearby

Snow Depth

Station Depth Elevation
No new snow has been reported.

Earthquake Activity

City Distance Mag. Time & Date
No recent earthquake activity has been reported nearby.
Minimum magnitude displayed is 2.5.

Coastal Water Temperatures

Place Temperature
Washington, DC 73.9 °F
Baltimore, MD 75.9 °F
Solomons Island, MD 75.9 °F

Nearby Weather Stations